createdAt,value
2024-01-30T00:01:20.664Z,31.90
2024-01-30T00:04:05.977Z,31.20
2024-01-30T00:06:52.153Z,30.70
2024-01-30T00:09:37.261Z,29.10
2024-01-30T00:12:22.174Z,29.83
2024-01-30T00:15:07.234Z,30.23
2024-01-30T00:17:52.225Z,30.47
2024-01-30T00:20:37.580Z,29.33
2024-01-30T00:23:22.388Z,29.23
2024-01-30T00:26:07.249Z,27.80
2024-01-30T00:28:52.067Z,28.43
2024-01-30T00:31:39.793Z,30.77
2024-01-30T00:34:26.815Z,29.40
2024-01-30T00:37:11.815Z,31.23
2024-01-30T00:39:57.152Z,29.27
2024-01-30T00:42:43.577Z,30.00
2024-01-30T00:45:28.337Z,28.73
2024-01-30T00:48:13.316Z,31.37
2024-01-30T00:50:58.564Z,32.00
2024-01-30T00:53:43.538Z,30.00
2024-01-30T00:56:28.607Z,31.73
2024-01-30T00:59:13.763Z,30.73
2024-01-30T01:01:59.285Z,31.33
2024-01-30T01:04:44.777Z,30.33
2024-01-30T01:07:30.460Z,31.10
2024-01-30T01:10:16.297Z,31.90
2024-01-30T01:13:01.894Z,34.20
2024-01-30T01:15:47.224Z,30.87
2024-01-30T01:18:32.225Z,29.20
2024-01-30T01:21:17.229Z,28.80
2024-01-30T01:24:02.059Z,31.53
2024-01-30T01:26:47.011Z,31.13
2024-01-30T01:29:31.859Z,34.40
2024-01-30T01:32:16.916Z,33.30
2024-01-30T01:35:03.131Z,31.30
2024-01-30T01:37:47.972Z,30.90
2024-01-30T01:40:33.008Z,32.97
2024-01-30T01:43:18.095Z,33.17
2024-01-30T01:46:03.558Z,32.07
2024-01-30T01:48:48.832Z,34.17
2024-01-30T01:51:36.589Z,31.30
2024-01-30T01:54:22.430Z,32.10
2024-01-30T01:57:07.502Z,32.93
2024-01-30T01:59:53.156Z,31.40
2024-01-30T02:02:39.978Z,31.83
2024-01-30T02:05:25.418Z,32.03
2024-01-30T02:08:10.666Z,31.53
2024-01-30T02:10:56.746Z,35.97
2024-01-30T02:13:42.097Z,32.83
2024-01-30T02:16:27.362Z,31.13
2024-01-30T02:19:12.880Z,33.70
2024-01-30T02:21:58.356Z,30.10
2024-01-30T02:24:43.420Z,31.33
2024-01-30T02:27:28.755Z,30.67
2024-01-30T02:30:13.798Z,32.40
2024-01-30T02:32:58.925Z,30.43
2024-01-30T02:35:44.281Z,31.47
2024-01-30T02:38:29.153Z,31.33
2024-01-30T02:41:14.345Z,31.57
2024-01-30T02:43:59.147Z,31.00
2024-01-30T02:46:44.195Z,29.03
2024-01-30T02:49:29.274Z,32.30
2024-01-30T02:52:14.602Z,33.87
2024-01-30T02:55:00.260Z,34.17
2024-01-30T02:57:45.600Z,33.20
2024-01-30T03:00:30.994Z,31.17
2024-01-30T03:03:16.509Z,36.10
2024-01-30T03:06:01.911Z,33.47
2024-01-30T03:08:47.279Z,31.23
2024-01-30T03:11:32.184Z,32.60
2024-01-30T03:14:17.031Z,32.57
2024-01-30T03:17:02.363Z,35.37
2024-01-30T03:19:47.307Z,34.80
2024-01-30T03:22:32.584Z,34.73
2024-01-30T03:25:17.543Z,34.33
2024-01-30T03:28:02.889Z,37.13
2024-01-30T03:30:48.429Z,36.57
2024-01-30T03:33:33.441Z,36.00
2024-01-30T03:36:18.770Z,33.57
2024-01-30T03:39:04.203Z,33.17
2024-01-30T03:41:49.134Z,34.40
2024-01-30T03:44:33.994Z,34.40
2024-01-30T03:47:18.819Z,33.90
2024-01-30T03:50:03.948Z,35.00
2024-01-30T03:52:49.075Z,35.93
2024-01-30T03:55:33.944Z,31.33
2024-01-30T03:58:18.954Z,33.57
2024-01-30T04:01:04.425Z,34.90
2024-01-30T04:03:49.860Z,32.83
2024-01-30T04:06:35.231Z,33.93
2024-01-30T04:09:20.095Z,34.30
2024-01-30T04:12:05.164Z,31.67
2024-01-30T04:14:50.046Z,34.67
2024-01-30T04:17:35.540Z,37.23
2024-01-30T04:20:20.840Z,35.23
2024-01-30T04:23:05.796Z,33.77
2024-01-30T04:25:50.569Z,34.43
2024-01-30T04:28:35.548Z,36.80
2024-01-30T04:31:20.606Z,37.13
2024-01-30T04:34:05.976Z,39.07
2024-01-30T04:36:51.492Z,35.87
2024-01-30T04:39:36.769Z,37.07
2024-01-30T04:42:21.840Z,36.07
2024-01-30T04:45:07.071Z,35.63
2024-01-30T04:47:52.097Z,36.67
2024-01-30T04:50:36.897Z,35.40
2024-01-30T04:53:21.745Z,33.80
2024-01-30T04:56:07.001Z,34.93
2024-01-30T04:58:52.189Z,36.47
2024-01-30T05:01:37.179Z,37.00
2024-01-30T05:04:22.483Z,36.53
2024-01-30T05:07:07.765Z,37.77
2024-01-30T05:09:54.534Z,35.87
2024-01-30T05:12:41.268Z,37.27
2024-01-30T05:15:26.490Z,35.17
2024-01-30T05:18:11.400Z,36.40
2024-01-30T05:20:56.615Z,37.90
2024-01-30T05:23:41.606Z,41.03
2024-01-30T05:26:26.523Z,37.53
2024-01-30T05:29:11.593Z,40.43
2024-01-30T05:31:56.395Z,37.07
2024-01-30T05:34:41.431Z,35.57
2024-01-30T05:37:26.781Z,37.07
2024-01-30T05:40:12.215Z,35.67
2024-01-30T05:42:57.975Z,38.93
2024-01-30T05:45:43.022Z,36.43
2024-01-30T05:48:28.265Z,38.47
2024-01-30T05:51:13.367Z,36.47
2024-01-30T05:53:58.556Z,34.50
2024-01-30T05:56:43.360Z,36.87
2024-01-30T05:59:28.502Z,36.97
2024-01-30T06:02:14.126Z,35.23
2024-01-30T06:04:59.394Z,36.90
2024-01-30T06:07:44.741Z,37.67
2024-01-30T06:10:30.086Z,37.20
2024-01-30T06:13:14.915Z,36.87
2024-01-30T06:15:59.773Z,34.33
2024-01-30T06:18:44.674Z,35.13
2024-01-30T06:21:29.928Z,36.20
2024-01-30T06:24:15.014Z,35.40
2024-01-30T06:27:00.061Z,35.57
2024-01-30T06:29:45.146Z,36.13
2024-01-30T06:32:30.183Z,37.40
2024-01-30T06:35:15.537Z,35.27
2024-01-30T06:38:00.814Z,37.67
2024-01-30T06:40:45.697Z,37.47
2024-01-30T06:43:30.698Z,38.73
2024-01-30T06:46:16.021Z,38.67
2024-01-30T06:49:01.365Z,38.80
2024-01-30T06:51:46.727Z,38.50
2024-01-30T06:54:31.598Z,38.77
2024-01-30T06:57:16.538Z,37.20
2024-01-30T07:00:02.110Z,38.73
2024-01-30T07:02:47.356Z,35.33
2024-01-30T07:05:33.029Z,35.90
2024-01-30T07:08:18.165Z,34.07
2024-01-30T07:11:03.182Z,36.77
2024-01-30T07:13:47.992Z,34.70
2024-01-30T07:16:32.937Z,34.83
2024-01-30T07:19:18.353Z,36.07
2024-01-30T07:22:03.438Z,33.50
2024-01-30T07:24:48.458Z,34.47
2024-01-30T07:27:33.792Z,35.33
2024-01-30T07:30:18.774Z,32.67
2024-01-30T07:33:03.753Z,36.63
2024-01-30T07:35:49.235Z,33.67
2024-01-30T07:38:34.069Z,34.83
2024-01-30T07:41:19.115Z,87.23
2024-01-30T07:44:04.339Z,34.07
2024-01-30T07:46:49.391Z,33.00
2024-01-30T07:49:34.459Z,32.63
2024-01-30T07:52:20.008Z,34.77
2024-01-30T07:55:05.748Z,34.87
2024-01-30T07:57:54.144Z,30.80
2024-01-30T08:00:39.267Z,33.97
2024-01-30T08:03:25.361Z,32.50
2024-01-30T08:06:11.090Z,34.80
2024-01-30T08:08:56.045Z,33.87
2024-01-30T08:11:41.016Z,30.00
2024-01-30T08:14:25.830Z,34.83
2024-01-30T08:17:11.202Z,36.00
2024-01-30T08:19:56.205Z,35.70
2024-01-30T08:22:42.054Z,31.77
2024-01-30T08:25:27.340Z,32.50
2024-01-30T08:28:12.501Z,32.57
2024-01-30T08:30:57.852Z,33.47
2024-01-30T08:33:44.264Z,38.00
2024-01-30T08:36:30.061Z,66.57
2024-01-30T08:39:15.522Z,49.70
2024-01-30T08:42:00.914Z,49.07
2024-01-30T08:44:45.877Z,42.93
2024-01-30T08:47:37.434Z,34.73
2024-01-30T08:50:22.774Z,29.40
2024-01-30T08:53:07.701Z,28.50
2024-01-30T08:55:52.644Z,25.37
2024-01-30T08:58:38.006Z,25.10
2024-01-30T09:01:23.336Z,28.03
2024-01-30T09:04:08.810Z,29.63
2024-01-30T09:06:54.237Z,27.20
2024-01-30T09:09:40.388Z,26.23
2024-01-30T09:12:25.457Z,29.00
2024-01-30T09:15:10.766Z,31.07
2024-01-30T09:17:56.136Z,30.27
2024-01-30T09:20:41.448Z,24.23
2024-01-30T09:23:28.013Z,26.47
2024-01-30T09:26:13.229Z,25.73
2024-01-30T09:28:58.155Z,25.53
2024-01-30T09:31:47.382Z,27.67
2024-01-30T09:34:32.880Z,25.37
2024-01-30T09:37:18.317Z,23.73
2024-01-30T09:40:03.837Z,26.03
2024-01-30T09:42:51.307Z,23.30
2024-01-30T09:45:36.708Z,25.87
2024-01-30T09:48:22.579Z,26.20
2024-01-30T09:51:09.049Z,23.80
2024-01-30T09:53:55.707Z,23.67
2024-01-30T09:56:40.547Z,22.50
2024-01-30T09:59:25.596Z,23.80
2024-01-30T10:02:11.229Z,23.83
2024-01-30T10:04:56.503Z,25.30
2024-01-30T10:07:51.688Z,22.50
2024-01-30T10:10:37.089Z,21.03
2024-01-30T10:13:22.369Z,19.40
2024-01-30T10:16:07.710Z,20.73
2024-01-30T10:18:52.837Z,21.07
2024-01-30T10:21:38.243Z,20.80
2024-01-30T10:24:26.631Z,22.27
2024-01-30T10:27:11.567Z,22.13
2024-01-30T10:29:56.744Z,20.17
2024-01-30T10:32:42.110Z,21.07
2024-01-30T10:35:27.430Z,22.33
2024-01-30T10:38:16.584Z,20.73
2024-01-30T10:41:02.509Z,18.87
2024-01-30T10:44:03.992Z,19.60
2024-01-30T10:47:04.542Z,19.27
2024-01-30T10:49:50.528Z,20.13
2024-01-30T10:52:36.130Z,21.35
2024-01-30T10:55:22.876Z,19.55
2024-01-30T10:58:09.148Z,20.37
2024-01-30T11:00:55.824Z,19.95
2024-01-30T11:03:41.885Z,19.38
2024-01-30T11:06:27.330Z,19.57
2024-01-30T11:09:12.646Z,17.38
2024-01-30T11:11:59.172Z,18.33
2024-01-30T11:14:44.160Z,19.17
2024-01-30T11:17:29.488Z,19.77
2024-01-30T11:20:28.898Z,18.08
2024-01-30T11:23:13.976Z,20.27
2024-01-30T11:25:58.867Z,19.65
2024-01-30T11:28:53.813Z,19.67
2024-01-30T11:31:39.346Z,19.10
2024-01-30T11:34:25.453Z,19.08
2024-01-30T11:37:13.358Z,20.80
2024-01-30T11:39:59.460Z,20.27
2024-01-30T11:42:44.688Z,19.63
2024-01-30T11:45:30.209Z,17.13
2024-01-30T11:48:15.688Z,17.08
2024-01-30T11:51:01.046Z,18.42
2024-01-30T11:53:50.664Z,23.55
2024-01-30T11:56:37.394Z,18.90
2024-01-30T11:59:22.239Z,21.15
2024-01-30T12:02:07.064Z,20.80
2024-01-30T12:04:52.623Z,20.83
2024-01-30T12:07:38.313Z,21.60
2024-01-30T12:10:23.419Z,17.42
2024-01-30T12:13:08.439Z,17.90
2024-01-30T12:15:53.805Z,18.38
2024-01-30T12:18:38.940Z,19.73
2024-01-30T12:21:24.187Z,16.58
2024-01-30T12:24:09.214Z,16.85
2024-01-30T12:26:58.226Z,19.42
2024-01-30T12:29:43.357Z,17.02
2024-01-30T12:32:29.064Z,18.17
2024-01-30T12:35:16.913Z,20.75
2024-01-30T12:38:03.243Z,17.98
2024-01-30T12:40:48.368Z,18.52
2024-01-30T12:43:38.322Z,16.48
2024-01-30T12:46:30.645Z,17.75
2024-01-30T12:49:15.846Z,17.20
2024-01-30T12:52:01.380Z,20.48
2024-01-30T12:54:46.710Z,18.65
2024-01-30T12:57:32.093Z,19.08
2024-01-30T13:00:17.289Z,21.75
2024-01-30T13:03:02.674Z,20.77
2024-01-30T13:05:47.703Z,19.02
2024-01-30T13:08:32.506Z,18.52
2024-01-30T13:11:21.236Z,18.52
2024-01-30T13:14:06.930Z,19.25
2024-01-30T13:16:51.795Z,19.90
2024-01-30T13:19:36.765Z,23.15
2024-01-30T13:22:21.578Z,19.27
2024-01-30T13:25:06.957Z,19.40
2024-01-30T13:27:52.054Z,21.42
2024-01-30T13:30:37.232Z,23.25
2024-01-30T13:33:22.363Z,20.15
2024-01-30T13:36:08.901Z,20.88
2024-01-30T13:38:53.860Z,22.83
2024-01-30T13:41:39.051Z,24.90
2024-01-30T13:44:24.135Z,21.67
2024-01-30T13:47:09.014Z,26.25
2024-01-30T13:49:54.156Z,21.27
2024-01-30T13:52:44.408Z,23.23
2024-01-30T13:55:30.552Z,22.17
2024-01-30T13:58:15.902Z,23.20
2024-01-30T14:01:01.376Z,22.45
2024-01-30T14:03:46.818Z,21.27
2024-01-30T14:06:31.786Z,20.15
2024-01-30T14:09:17.186Z,22.27
2024-01-30T14:12:02.276Z,21.35
2024-01-30T14:14:47.132Z,22.08
2024-01-30T14:17:32.154Z,23.67
2024-01-30T14:20:17.680Z,20.38
2024-01-30T14:23:02.386Z,21.80
2024-01-30T14:25:47.187Z,22.70
2024-01-30T14:28:32.037Z,20.63
2024-01-30T14:31:16.887Z,26.30
2024-01-30T14:34:02.436Z,21.42
2024-01-30T14:36:47.864Z,22.02
2024-01-30T14:39:33.289Z,21.20
2024-01-30T14:42:18.655Z,21.80
2024-01-30T14:45:04.293Z,21.50
2024-01-30T14:47:49.616Z,19.35
2024-01-30T14:50:34.766Z,21.40
2024-01-30T14:53:19.776Z,23.52
2024-01-30T14:56:05.260Z,20.83
2024-01-30T14:58:50.290Z,20.02
2024-01-30T15:01:35.238Z,18.38
2024-01-30T15:04:20.705Z,25.13
2024-01-30T15:07:06.144Z,21.17
2024-01-30T15:09:51.693Z,23.27
2024-01-30T15:12:37.777Z,21.60
2024-01-30T15:15:22.745Z,23.88
2024-01-30T15:18:09.085Z,26.45
2024-01-30T15:20:53.871Z,20.85
2024-01-30T15:23:38.725Z,19.90
2024-01-30T15:26:23.694Z,20.48
2024-01-30T15:29:08.809Z,26.58
2024-01-30T15:31:54.473Z,20.08
2024-01-30T15:34:39.545Z,21.90
2024-01-30T15:37:24.944Z,24.80
2024-01-30T15:40:12.265Z,20.85
2024-01-30T15:42:57.357Z,23.20
2024-01-30T15:45:42.699Z,26.77
2024-01-30T15:48:28.001Z,23.92
2024-01-30T15:51:13.216Z,24.03
2024-01-30T15:53:58.032Z,22.25
2024-01-30T15:56:42.993Z,24.25
2024-01-30T15:59:27.764Z,24.23
2024-01-30T16:02:12.904Z,23.58
2024-01-30T16:04:58.522Z,22.27
2024-01-30T16:07:43.668Z,22.08
2024-01-30T16:10:28.834Z,22.17
2024-01-30T16:13:13.829Z,23.60
2024-01-30T16:15:59.285Z,22.30
2024-01-30T16:18:44.233Z,22.67
2024-01-30T16:21:29.083Z,20.30
2024-01-30T16:24:14.054Z,21.63
2024-01-30T16:26:58.977Z,21.25
2024-01-30T16:29:45.011Z,23.35
2024-01-30T16:32:30.152Z,20.10
2024-01-30T16:35:15.478Z,22.58
2024-01-30T16:38:00.973Z,19.95
2024-01-30T16:40:45.934Z,22.17
2024-01-30T16:43:30.947Z,19.75
2024-01-30T16:46:17.123Z,25.63
2024-01-30T16:49:02.110Z,28.33
2024-01-30T16:51:47.398Z,24.33
2024-01-30T16:54:32.313Z,22.35
2024-01-30T16:57:17.308Z,25.30
2024-01-30T17:00:02.157Z,21.48
2024-01-30T17:02:47.132Z,20.42
2024-01-30T17:05:32.981Z,22.57
2024-01-30T17:08:18.410Z,25.33
2024-01-30T17:11:03.369Z,23.35
2024-01-30T17:13:48.403Z,21.15
2024-01-30T17:16:33.328Z,20.87
2024-01-30T17:19:18.334Z,21.30
2024-01-30T17:22:03.906Z,19.33
2024-01-30T17:24:50.795Z,20.92
2024-01-30T17:27:36.517Z,16.73
2024-01-30T17:30:22.399Z,23.80
2024-01-30T17:33:08.053Z,15.37
2024-01-30T17:35:53.624Z,16.80
2024-01-30T17:38:38.903Z,14.53
2024-01-30T17:41:23.785Z,13.37
2024-01-30T17:44:08.746Z,13.00
2024-01-30T17:46:53.651Z,11.40
2024-01-30T17:49:38.723Z,9.53
2024-01-30T17:52:23.986Z,9.80
2024-01-30T17:55:09.126Z,10.17
2024-01-30T17:57:54.220Z,8.83
2024-01-30T18:00:38.992Z,9.63
2024-01-30T18:03:23.736Z,9.90
2024-01-30T18:06:09.178Z,10.20
2024-01-30T18:08:53.950Z,8.10
2024-01-30T18:11:38.986Z,8.77
2024-01-30T18:14:24.470Z,6.93
2024-01-30T18:17:09.425Z,8.03
2024-01-30T18:19:55.006Z,10.57
2024-01-30T18:22:40.283Z,7.07
2024-01-30T18:25:25.247Z,7.30
2024-01-30T18:28:10.718Z,7.73
2024-01-30T18:30:55.647Z,9.40
2024-01-30T18:33:41.061Z,11.50
2024-01-30T18:36:25.859Z,8.23
2024-01-30T18:39:10.772Z,8.77
2024-01-30T18:41:55.601Z,8.63
2024-01-30T18:44:40.593Z,8.33
2024-01-30T18:47:25.996Z,6.97
2024-01-30T18:50:11.075Z,8.40
2024-01-30T18:52:55.990Z,12.53
2024-01-30T18:55:40.910Z,10.77
2024-01-30T18:58:25.997Z,11.00
2024-01-30T19:01:10.937Z,8.10
2024-01-30T19:03:55.924Z,9.03
2024-01-30T19:06:41.331Z,10.80
2024-01-30T19:09:26.742Z,7.63
2024-01-30T19:12:11.567Z,8.17
2024-01-30T19:14:56.395Z,9.87
2024-01-30T19:17:41.269Z,13.25
2024-01-30T19:20:26.600Z,9.23
2024-01-30T19:23:11.670Z,13.53
2024-01-30T19:25:56.704Z,14.63
2024-01-30T19:28:43.169Z,17.03
2024-01-30T19:31:28.301Z,15.00
2024-01-30T19:34:13.678Z,14.93
2024-01-30T19:36:59.055Z,13.73
2024-01-30T19:39:43.823Z,15.77
2024-01-30T19:42:28.605Z,13.97
2024-01-30T19:45:13.548Z,18.47
2024-01-30T19:47:58.400Z,15.30
2024-01-30T19:50:43.375Z,18.00
2024-01-30T19:53:28.317Z,18.17
2024-01-30T19:56:13.194Z,19.20
2024-01-30T19:58:58.083Z,17.97
2024-01-30T20:01:43.082Z,19.13
2024-01-30T20:04:28.530Z,20.73
2024-01-30T20:07:15.408Z,20.40
2024-01-30T20:10:01.762Z,22.33
2024-01-30T20:12:47.083Z,20.80
2024-01-30T20:15:32.096Z,20.87
2024-01-30T20:18:16.849Z,23.03
2024-01-30T20:21:01.828Z,21.63
2024-01-30T20:23:46.876Z,22.00
2024-01-30T20:26:32.040Z,21.90
2024-01-30T20:29:17.402Z,22.83
2024-01-30T20:32:02.335Z,22.03
2024-01-30T20:34:48.006Z,21.63
2024-01-30T20:37:37.806Z,22.80
2024-01-30T20:40:23.118Z,23.00
2024-01-30T20:43:08.819Z,22.77
2024-01-30T20:45:54.110Z,23.67
2024-01-30T20:48:42.794Z,25.47
2024-01-30T20:51:27.944Z,22.63
2024-01-30T20:54:12.910Z,24.53
2024-01-30T20:56:57.866Z,22.07
2024-01-30T20:59:42.788Z,22.97
2024-01-30T21:02:27.783Z,24.43
2024-01-30T21:05:13.116Z,25.03
2024-01-30T21:07:58.893Z,26.00
2024-01-30T21:10:45.056Z,27.27
2024-01-30T21:13:29.945Z,27.40
2024-01-30T21:16:15.340Z,25.07
2024-01-30T21:19:00.470Z,25.83
2024-01-30T21:21:45.830Z,25.63
2024-01-30T21:24:31.086Z,27.87
2024-01-30T21:27:16.413Z,26.20
2024-01-30T21:30:01.361Z,27.07
2024-01-30T21:32:46.323Z,28.47
2024-01-30T21:35:31.153Z,28.60
2024-01-30T21:38:16.839Z,26.83
2024-01-30T21:41:01.940Z,26.63
2024-01-30T21:43:47.035Z,29.20
2024-01-30T21:46:31.795Z,27.60
2024-01-30T21:49:16.797Z,27.03
2024-01-30T21:52:02.062Z,30.77
2024-01-30T21:54:47.501Z,28.20
2024-01-30T21:57:32.474Z,28.50
2024-01-30T22:00:17.595Z,29.80
2024-01-30T22:03:02.820Z,31.37
2024-01-30T22:05:48.105Z,33.20
2024-01-30T22:08:33.228Z,32.37
2024-01-30T22:11:18.274Z,31.17
2024-01-30T22:14:03.534Z,30.57
2024-01-30T22:16:48.537Z,33.17
2024-01-30T22:19:33.551Z,33.60
2024-01-30T22:22:19.157Z,36.07
2024-01-30T22:25:04.898Z,37.60
2024-01-30T22:27:53.402Z,36.00
2024-01-30T22:30:38.560Z,39.67
2024-01-30T22:33:23.538Z,41.20
2024-01-30T22:36:08.540Z,41.93
2024-01-30T22:38:53.839Z,39.97
2024-01-30T22:41:39.260Z,31.60
2024-01-30T22:44:24.819Z,30.60
2024-01-30T22:47:09.681Z,27.00
2024-01-30T22:49:54.699Z,26.63
2024-01-30T22:52:40.112Z,29.27
2024-01-30T22:55:25.561Z,28.77
2024-01-30T22:58:10.392Z,26.70
2024-01-30T23:00:55.901Z,26.87
2024-01-30T23:03:41.494Z,26.53
2024-01-30T23:06:26.787Z,24.37
2024-01-30T23:09:11.696Z,24.87
2024-01-30T23:11:56.639Z,21.97
2024-01-30T23:14:41.412Z,23.73
2024-01-30T23:17:26.497Z,22.10
2024-01-30T23:20:12.071Z,22.93
2024-01-30T23:22:56.919Z,22.60
2024-01-30T23:25:42.330Z,20.60
2024-01-30T23:28:27.880Z,24.37
2024-01-30T23:31:13.235Z,22.00
2024-01-30T23:33:58.543Z,24.87
2024-01-30T23:36:44.017Z,24.00
2024-01-30T23:39:29.282Z,24.37
2024-01-30T23:42:14.236Z,26.00
2024-01-30T23:44:58.986Z,25.13
2024-01-30T23:47:44.113Z,23.30
2024-01-30T23:50:29.203Z,24.40
2024-01-30T23:53:14.712Z,27.77
2024-01-30T23:55:59.847Z,27.00
2024-01-30T23:58:44.763Z,23.07
